createdAt,value
2018-02-27T00:00:28.411Z,3.25
2018-02-27T00:02:55.062Z,3.20
2018-02-27T00:05:22.382Z,3.00
2018-02-27T00:07:49.423Z,2.90
2018-02-27T00:10:16.512Z,3.37
2018-02-27T00:12:43.572Z,2.70
2018-02-27T00:15:10.836Z,2.80
2018-02-27T00:17:37.516Z,2.65
2018-02-27T00:20:04.793Z,3.10
2018-02-27T00:22:31.471Z,2.53
2018-02-27T00:24:58.115Z,3.37
2018-02-27T00:27:25.672Z,2.55
2018-02-27T00:29:52.307Z,3.03
2018-02-27T00:32:19.901Z,2.55
2018-02-27T00:34:47.783Z,2.85
2018-02-27T00:37:14.601Z,2.70
2018-02-27T00:39:41.283Z,3.00
2018-02-27T00:42:12.800Z,2.83
2018-02-27T00:44:39.630Z,2.47
2018-02-27T00:47:14.652Z,2.70
2018-02-27T00:49:49.871Z,2.72
2018-02-27T00:52:21.994Z,3.22
2018-02-27T00:54:49.029Z,2.60
2018-02-27T00:57:15.692Z,2.22
2018-02-27T00:59:42.455Z,3.50
2018-02-27T01:02:09.094Z,2.70
2018-02-27T01:04:35.751Z,2.60
2018-02-27T01:07:02.696Z,2.90
2018-02-27T01:09:29.851Z,3.00
2018-02-27T01:11:56.480Z,2.47
2018-02-27T01:14:23.161Z,2.37
2018-02-27T01:16:49.801Z,3.00
2018-02-27T01:19:17.151Z,2.85
2018-02-27T01:21:44.501Z,2.62
2018-02-27T01:24:11.131Z,2.30
2018-02-27T01:26:37.773Z,2.10
2018-02-27T01:29:05.275Z,3.00
2018-02-27T01:31:32.607Z,2.70
2018-02-27T01:33:59.371Z,2.35
2018-02-27T01:36:26.487Z,4.05
2018-02-27T01:38:53.163Z,2.80
2018-02-27T01:41:19.819Z,3.03
2018-02-27T01:43:46.737Z,2.62
2018-02-27T01:46:14.314Z,3.03
2018-02-27T01:48:41.036Z,3.05
2018-02-27T01:51:17.728Z,2.58
2018-02-27T01:53:44.376Z,2.10
2018-02-27T01:56:11.007Z,2.30
2018-02-27T01:58:39.235Z,2.20
2018-02-27T02:01:06.723Z,2.55
2018-02-27T02:03:33.386Z,2.55
2018-02-27T02:06:01.772Z,2.60
2018-02-27T02:08:28.440Z,2.45
2018-02-27T02:10:55.098Z,2.60
2018-02-27T02:13:21.748Z,3.35
2018-02-27T02:15:48.343Z,2.70
2018-02-27T02:18:15.243Z,1.73
2018-02-27T02:20:41.991Z,2.17
2018-02-27T02:23:09.627Z,1.90
2018-02-27T02:25:36.315Z,2.15
2018-02-27T02:28:03.756Z,2.80
2018-02-27T02:30:32.799Z,2.45
2018-02-27T02:32:59.455Z,2.80
2018-02-27T02:35:26.172Z,2.65
2018-02-27T02:37:52.820Z,2.40
2018-02-27T02:40:21.271Z,2.30
2018-02-27T02:42:47.907Z,2.45
2018-02-27T02:45:15.373Z,2.50
2018-02-27T02:47:46.150Z,1.95
2018-02-27T02:50:12.780Z,2.50
2018-02-27T02:52:39.413Z,2.75
2018-02-27T02:55:06.373Z,2.20
2018-02-27T02:57:33.896Z,2.47
2018-02-27T03:00:00.511Z,2.35
2018-02-27T03:02:27.554Z,2.70
2018-02-27T03:04:54.342Z,2.28
2018-02-27T03:07:21.631Z,2.50
2018-02-27T03:09:48.321Z,2.80
2018-02-27T03:12:15.774Z,2.78
2018-02-27T03:14:42.472Z,2.17
2018-02-27T03:17:09.164Z,2.03
2018-02-27T03:19:40.899Z,2.30
2018-02-27T03:22:07.802Z,2.75
2018-02-27T03:24:34.460Z,2.42
2018-02-27T03:27:01.084Z,2.03
2018-02-27T03:29:27.713Z,2.58
2018-02-27T03:31:54.719Z,2.25
2018-02-27T03:34:29.286Z,2.37
2018-02-27T03:36:55.981Z,2.12
2018-02-27T03:39:25.994Z,2.45
2018-02-27T03:41:52.676Z,2.33
2018-02-27T03:44:19.374Z,2.30
2018-02-27T03:46:46.015Z,3.17
2018-02-27T03:49:13.481Z,1.90
2018-02-27T03:51:40.118Z,2.08
2018-02-27T03:54:07.561Z,2.72
2018-02-27T03:56:34.179Z,2.15
2018-02-27T03:59:00.843Z,2.42
2018-02-27T04:01:31.916Z,2.33
2018-02-27T04:03:58.625Z,2.50
2018-02-27T04:06:26.127Z,1.87
2018-02-27T04:08:52.776Z,2.35
2018-02-27T04:11:19.397Z,2.20
2018-02-27T04:13:46.044Z,2.12
2018-02-27T04:16:13.395Z,1.98
2018-02-27T04:18:40.292Z,2.05
2018-02-27T04:21:07.204Z,2.37
2018-02-27T04:23:33.865Z,2.40
2018-02-27T04:26:05.194Z,2.25
2018-02-27T04:28:31.842Z,2.00
2018-02-27T04:30:58.563Z,2.92
2018-02-27T04:33:25.232Z,2.10
2018-02-27T04:35:51.916Z,2.62
2018-02-27T04:38:18.537Z,2.35
2018-02-27T04:40:45.212Z,2.00
2018-02-27T04:43:11.900Z,2.12
2018-02-27T04:45:38.669Z,2.33
2018-02-27T04:48:09.259Z,2.53
2018-02-27T04:50:39.553Z,2.05
2018-02-27T04:53:06.223Z,1.90
2018-02-27T04:55:37.111Z,1.92
2018-02-27T04:58:09.324Z,2.65
2018-02-27T05:00:38.036Z,2.10
2018-02-27T05:03:04.717Z,2.70
2018-02-27T05:05:31.332Z,2.50
2018-02-27T05:07:57.978Z,2.55
2018-02-27T05:10:24.788Z,2.83
2018-02-27T05:12:52.645Z,2.20
2018-02-27T05:15:19.271Z,2.65
2018-02-27T05:17:47.063Z,2.72
2018-02-27T05:20:13.669Z,2.78
2018-02-27T05:22:40.371Z,2.20
2018-02-27T05:25:07.036Z,2.40
2018-02-27T05:27:36.267Z,2.72
2018-02-27T05:30:04.640Z,2.30
2018-02-27T05:32:32.134Z,1.87
2018-02-27T05:34:59.720Z,2.10
2018-02-27T05:37:26.393Z,2.30
2018-02-27T05:39:53.244Z,2.05
2018-02-27T05:42:23.870Z,2.80
2018-02-27T05:44:51.864Z,2.58
2018-02-27T05:47:23.075Z,2.58
2018-02-27T05:49:49.844Z,2.15
2018-02-27T05:52:16.616Z,2.95
2018-02-27T05:54:44.635Z,4.20
2018-02-27T05:57:11.676Z,3.80
2018-02-27T05:59:40.863Z,2.67
2018-02-27T06:02:08.008Z,3.05
2018-02-27T06:04:35.657Z,3.00
2018-02-27T06:07:02.585Z,2.95
2018-02-27T06:09:35.501Z,2.75
2018-02-27T06:12:06.535Z,2.53
2018-02-27T06:14:34.500Z,3.10
2018-02-27T06:17:02.140Z,3.00
2018-02-27T06:19:28.863Z,2.45
2018-02-27T06:21:57.427Z,2.80
2018-02-27T06:24:24.888Z,3.20
2018-02-27T06:26:51.672Z,3.10
2018-02-27T06:29:18.414Z,3.00
2018-02-27T06:31:45.895Z,3.37
2018-02-27T06:34:12.676Z,3.33
2018-02-27T06:36:43.436Z,3.95
2018-02-27T06:39:10.055Z,2.95
2018-02-27T06:41:36.684Z,3.30
2018-02-27T06:44:03.302Z,3.30
2018-02-27T06:46:29.892Z,3.10
2018-02-27T06:48:56.515Z,3.10
2018-02-27T06:51:23.155Z,3.30
2018-02-27T06:53:49.784Z,3.65
2018-02-27T06:56:16.423Z,3.30
2018-02-27T06:58:43.045Z,3.25
2018-02-27T07:01:09.676Z,4.18
2018-02-27T07:03:36.283Z,5.95
2018-02-27T07:06:02.912Z,5.28
2018-02-27T07:08:29.539Z,4.95
2018-02-27T07:10:56.193Z,4.00
2018-02-27T07:13:22.815Z,3.65
2018-02-27T07:15:49.422Z,3.92
2018-02-27T07:18:16.056Z,4.57
2018-02-27T07:20:42.676Z,5.25
2018-02-27T07:23:09.301Z,3.55
2018-02-27T07:25:35.920Z,4.20
2018-02-27T07:28:02.532Z,4.00
2018-02-27T07:30:29.159Z,3.83
2018-02-27T07:32:55.774Z,4.00
2018-02-27T07:35:22.393Z,3.60
2018-02-27T07:37:49.027Z,3.30
2018-02-27T07:40:15.688Z,3.55
2018-02-27T07:42:42.342Z,3.12
2018-02-27T07:45:08.952Z,3.83
2018-02-27T07:47:35.591Z,3.47
2018-02-27T07:50:02.901Z,3.33
2018-02-27T07:52:29.536Z,3.40
2018-02-27T07:54:56.172Z,5.55
2018-02-27T07:57:22.784Z,4.10
2018-02-27T07:59:49.395Z,4.95
2018-02-27T08:02:16.092Z,4.68
2018-02-27T08:04:42.744Z,4.85
2018-02-27T08:07:09.480Z,4.10
2018-02-27T08:09:36.117Z,3.97
2018-02-27T08:12:02.758Z,3.87
2018-02-27T08:14:29.388Z,5.20
2018-02-27T08:16:56.021Z,3.72
2018-02-27T08:19:22.639Z,4.40
2018-02-27T08:21:49.288Z,4.18
2018-02-27T08:24:15.894Z,4.97
2018-02-27T08:26:42.529Z,3.83
2018-02-27T08:29:09.144Z,4.70
2018-02-27T08:31:35.765Z,4.70
2018-02-27T08:34:02.417Z,4.22
2018-02-27T08:36:29.040Z,4.55
2018-02-27T08:38:55.744Z,4.72
2018-02-27T08:41:22.361Z,4.90
2018-02-27T08:43:49.010Z,4.40
2018-02-27T08:46:15.652Z,5.60
2018-02-27T08:48:42.277Z,4.82
2018-02-27T08:51:08.913Z,5.55
2018-02-27T08:53:35.542Z,4.95
2018-02-27T08:56:02.203Z,4.60
2018-02-27T08:58:28.829Z,5.37
2018-02-27T09:00:55.444Z,5.53
2018-02-27T09:03:22.072Z,4.43
2018-02-27T09:05:48.684Z,4.45
2018-02-27T09:08:15.321Z,5.87
2018-02-27T09:10:41.963Z,4.75
2018-02-27T09:13:08.600Z,5.37
2018-02-27T09:15:35.213Z,4.55
2018-02-27T09:18:01.863Z,9.57
2018-02-27T09:20:28.479Z,7.03
2018-02-27T09:22:55.125Z,5.35
2018-02-27T09:25:21.748Z,5.35
2018-02-27T09:27:48.364Z,4.50
2018-02-27T09:30:14.989Z,4.03
2018-02-27T09:32:41.604Z,4.70
2018-02-27T09:35:08.233Z,4.55
2018-02-27T09:37:34.869Z,5.10
2018-02-27T09:40:01.478Z,5.12
2018-02-27T09:42:28.944Z,4.93
2018-02-27T09:44:55.578Z,4.53
2018-02-27T09:47:22.189Z,4.68
2018-02-27T09:49:48.814Z,4.87
2018-02-27T09:52:15.440Z,3.22
2018-02-27T09:54:42.061Z,3.67
2018-02-27T09:57:08.709Z,3.90
2018-02-27T09:59:35.331Z,4.43
2018-02-27T10:02:01.954Z,4.15
2018-02-27T10:04:28.569Z,4.93
2018-02-27T10:06:55.208Z,4.10
2018-02-27T10:09:21.828Z,4.20
2018-02-27T10:11:48.470Z,3.40
2018-02-27T10:14:15.080Z,4.80
2018-02-27T10:16:41.708Z,4.57
2018-02-27T10:19:08.321Z,4.87
2018-02-27T10:21:34.988Z,4.55
2018-02-27T10:24:01.604Z,4.72
2018-02-27T10:26:28.223Z,4.22
2018-02-27T10:28:54.856Z,4.47
2018-02-27T10:31:21.471Z,4.85
2018-02-27T10:33:48.133Z,3.20
2018-02-27T10:36:14.772Z,3.80
2018-02-27T10:38:41.550Z,3.12
2018-02-27T10:41:08.193Z,3.40
2018-02-27T10:43:34.830Z,2.53
2018-02-27T10:46:01.451Z,3.35
2018-02-27T10:48:28.090Z,3.62
2018-02-27T10:50:54.704Z,2.20
2018-02-27T10:53:21.323Z,2.72
2018-02-27T10:55:47.938Z,2.33
2018-02-27T10:58:14.721Z,2.50
2018-02-27T11:00:47.213Z,2.65
2018-02-27T11:03:13.899Z,3.20
2018-02-27T11:05:40.514Z,3.15
2018-02-27T11:08:07.140Z,2.65
2018-02-27T11:10:33.783Z,3.35
2018-02-27T11:13:00.402Z,3.45
2018-02-27T11:15:27.024Z,3.05
2018-02-27T11:17:53.639Z,2.83
2018-02-27T11:20:20.279Z,2.83
2018-02-27T11:22:46.896Z,3.20
2018-02-27T11:25:13.536Z,2.50
2018-02-27T11:27:40.156Z,2.62
2018-02-27T11:30:06.777Z,2.78
2018-02-27T11:32:33.394Z,3.42
2018-02-27T11:35:00.025Z,3.10
2018-02-27T11:37:26.645Z,3.20
2018-02-27T11:39:53.268Z,3.08
2018-02-27T11:42:19.934Z,2.92
2018-02-27T11:44:46.557Z,2.62
2018-02-27T11:47:13.186Z,2.55
2018-02-27T11:49:39.804Z,3.90
2018-02-27T11:52:06.429Z,2.08
2018-02-27T11:54:33.044Z,2.45
2018-02-27T11:56:59.667Z,2.97
2018-02-27T11:59:26.320Z,2.00
2018-02-27T12:01:53.004Z,2.15
2018-02-27T12:04:19.650Z,2.33
2018-02-27T12:06:46.298Z,2.70
2018-02-27T12:09:12.913Z,3.00
2018-02-27T12:11:39.510Z,2.45
2018-02-27T12:14:06.136Z,2.25
2018-02-27T12:16:32.799Z,2.50
2018-02-27T12:18:59.491Z,2.50
2018-02-27T12:21:26.109Z,2.45
2018-02-27T12:23:52.772Z,2.97
2018-02-27T12:26:19.401Z,2.62
2018-02-27T12:28:46.131Z,2.33
2018-02-27T12:31:12.764Z,3.00
2018-02-27T12:33:39.491Z,2.75
2018-02-27T12:36:06.114Z,1.90
2018-02-27T12:38:32.720Z,2.95
2018-02-27T12:40:59.344Z,2.90
2018-02-27T12:43:25.960Z,2.78
2018-02-27T12:45:52.599Z,2.87
2018-02-27T12:48:19.216Z,2.60
2018-02-27T12:50:45.867Z,2.40
2018-02-27T12:53:12.534Z,3.05
2018-02-27T12:55:39.172Z,2.20
2018-02-27T12:58:05.805Z,3.30
2018-02-27T13:00:32.430Z,2.75
2018-02-27T13:02:59.138Z,2.62
2018-02-27T13:05:25.773Z,2.95
2018-02-27T13:07:52.443Z,3.17
2018-02-27T13:10:19.104Z,2.65
2018-02-27T13:12:45.724Z,2.28
2018-02-27T13:15:12.347Z,2.00
2018-02-27T13:17:38.989Z,2.20
2018-02-27T13:20:05.618Z,2.80
2018-02-27T13:22:32.296Z,2.47
2018-02-27T13:24:58.932Z,2.20
2018-02-27T13:27:25.580Z,2.70
2018-02-27T13:29:52.271Z,2.65
2018-02-27T13:32:18.915Z,2.65
2018-02-27T13:34:45.549Z,2.45
2018-02-27T13:37:12.168Z,2.83
2018-02-27T13:39:39.401Z,2.58
2018-02-27T13:42:06.009Z,2.33
2018-02-27T13:44:32.640Z,2.50
2018-02-27T13:46:59.257Z,2.40
2018-02-27T13:49:25.908Z,2.10
2018-02-27T13:51:52.571Z,2.75
2018-02-27T13:54:19.221Z,2.50
2018-02-27T13:56:45.851Z,2.25
2018-02-27T13:59:12.485Z,2.75
2018-02-27T14:01:39.135Z,2.05
2018-02-27T14:04:05.773Z,2.00
2018-02-27T14:06:32.427Z,3.50
2018-02-27T14:08:59.125Z,2.72
2018-02-27T14:11:25.802Z,2.42
2018-02-27T14:13:52.453Z,2.70
2018-02-27T14:16:19.100Z,2.35
2018-02-27T14:18:45.709Z,1.98
2018-02-27T14:21:12.367Z,1.90
2018-02-27T14:23:38.991Z,2.20
2018-02-27T14:26:05.632Z,2.35
2018-02-27T14:28:32.243Z,2.15
2018-02-27T14:30:58.884Z,2.50
2018-02-27T14:33:25.520Z,2.40
2018-02-27T14:35:52.174Z,2.45
2018-02-27T14:38:18.805Z,3.10
2018-02-27T14:40:45.435Z,2.83
2018-02-27T14:43:12.063Z,2.78
2018-02-27T14:45:38.709Z,2.33
2018-02-27T14:48:06.074Z,2.60
2018-02-27T14:50:32.715Z,3.10
2018-02-27T14:52:59.348Z,2.42
2018-02-27T14:55:25.979Z,2.03
2018-02-27T14:57:52.652Z,2.50
2018-02-27T15:00:19.258Z,2.65
2018-02-27T15:02:45.933Z,2.53
2018-02-27T15:05:12.582Z,2.50
2018-02-27T15:07:39.225Z,3.40
2018-02-27T15:10:05.890Z,2.37
2018-02-27T15:12:32.556Z,2.00
2018-02-27T15:14:59.201Z,2.50
2018-02-27T15:17:25.941Z,2.70
2018-02-27T15:19:52.592Z,2.58
2018-02-27T15:22:19.380Z,2.45
2018-02-27T15:24:45.990Z,2.42
2018-02-27T15:27:13.088Z,2.42
2018-02-27T15:29:39.748Z,2.03
2018-02-27T15:32:06.391Z,2.80
2018-02-27T15:34:33.091Z,2.47
2018-02-27T15:36:59.826Z,2.20
2018-02-27T15:39:26.491Z,2.33
2018-02-27T15:41:53.117Z,2.60
2018-02-27T15:44:19.749Z,2.47
2018-02-27T15:46:46.408Z,2.40
2018-02-27T15:49:13.754Z,2.65
2018-02-27T15:51:40.374Z,2.70
2018-02-27T15:54:07.058Z,2.22
2018-02-27T15:56:33.784Z,2.40
2018-02-27T15:59:00.411Z,2.97
2018-02-27T16:01:27.056Z,2.70
2018-02-27T16:03:53.676Z,1.92
2018-02-27T16:06:20.321Z,2.12
2018-02-27T16:08:46.950Z,2.90
2018-02-27T16:11:13.584Z,2.62
2018-02-27T16:13:40.200Z,2.37
2018-02-27T16:16:06.860Z,2.60
2018-02-27T16:18:33.469Z,2.72
2018-02-27T16:21:00.138Z,3.15
2018-02-27T16:23:26.772Z,2.60
2018-02-27T16:25:53.401Z,2.85
2018-02-27T16:28:20.057Z,3.40
2018-02-27T16:30:46.731Z,3.20
2018-02-27T16:33:13.370Z,2.90
2018-02-27T16:35:39.981Z,3.35
2018-02-27T16:38:06.641Z,2.67
2018-02-27T16:40:33.277Z,3.72
2018-02-27T16:42:59.926Z,3.40
2018-02-27T16:45:26.549Z,3.97
2018-02-27T16:47:53.819Z,4.22
2018-02-27T16:50:20.439Z,3.92
2018-02-27T16:52:47.051Z,4.70
2018-02-27T16:55:13.688Z,3.60
2018-02-27T16:57:40.306Z,3.75
2018-02-27T17:00:06.944Z,4.37
2018-02-27T17:02:33.556Z,5.15
2018-02-27T17:05:00.189Z,3.78
2018-02-27T17:07:26.814Z,2.97
2018-02-27T17:09:53.461Z,4.65
2018-02-27T17:12:20.103Z,3.60
2018-02-27T17:14:46.712Z,3.95
2018-02-27T17:17:13.356Z,3.40
2018-02-27T17:19:40.032Z,5.03
2018-02-27T17:22:06.760Z,4.37
2018-02-27T17:24:33.403Z,4.00
2018-02-27T17:27:00.050Z,4.00
2018-02-27T17:29:26.715Z,3.97
2018-02-27T17:31:53.365Z,3.85
2018-02-27T17:34:19.969Z,4.18
2018-02-27T17:36:46.639Z,4.50
2018-02-27T17:39:13.252Z,4.60
2018-02-27T17:41:45.153Z,3.55
2018-02-27T17:44:12.379Z,2.75
2018-02-27T17:46:39.144Z,3.05
2018-02-27T17:49:06.580Z,3.70
2018-02-27T17:51:33.324Z,3.15
2018-02-27T17:54:03.991Z,2.58
2018-02-27T17:56:32.118Z,3.03
2018-02-27T17:59:00.524Z,2.70
2018-02-27T18:01:27.799Z,2.35
2018-02-27T18:03:55.767Z,3.25
2018-02-27T18:06:22.476Z,4.07
2018-02-27T18:08:49.909Z,4.18
2018-02-27T18:11:22.086Z,4.45
2018-02-27T18:13:55.709Z,4.00
2018-02-27T18:16:23.358Z,8.50
2018-02-27T18:18:50.094Z,7.35
2018-02-27T18:21:17.512Z,4.45
2018-02-27T18:23:47.979Z,7.53
2018-02-27T18:26:15.130Z,4.55
2018-02-27T18:28:41.904Z,5.03
2018-02-27T18:31:09.864Z,5.12
2018-02-27T18:33:36.512Z,4.97
2018-02-27T18:36:07.548Z,5.12
2018-02-27T18:38:34.896Z,7.90
2018-02-27T18:41:02.465Z,5.82
2018-02-27T18:43:29.084Z,4.32
2018-02-27T18:45:55.846Z,3.80
2018-02-27T18:48:22.547Z,2.83
2018-02-27T18:50:49.529Z,3.25
2018-02-27T18:53:21.108Z,3.03
2018-02-27T18:55:52.189Z,3.15
2018-02-27T18:58:18.942Z,3.20
2018-02-27T19:00:47.418Z,4.00
2018-02-27T19:03:19.424Z,3.60
2018-02-27T19:05:46.231Z,4.80
2018-02-27T19:08:13.723Z,3.30
2018-02-27T19:10:41.021Z,3.60
2018-02-27T19:13:07.760Z,4.12
2018-02-27T19:15:35.408Z,3.28
2018-02-27T19:18:02.176Z,3.50
2018-02-27T19:20:28.877Z,3.62
2018-02-27T19:22:55.572Z,2.83
2018-02-27T19:25:22.928Z,4.00
2018-02-27T19:27:49.581Z,3.45
2018-02-27T19:30:16.216Z,8.68
2018-02-27T19:32:43.015Z,4.30
2018-02-27T19:35:09.722Z,2.97
2018-02-27T19:37:36.673Z,2.87
2018-02-27T19:40:03.432Z,3.05
2018-02-27T19:42:30.142Z,3.03
2018-02-27T19:44:56.895Z,3.30
2018-02-27T19:47:23.650Z,3.28
2018-02-27T19:49:50.456Z,3.10
2018-02-27T19:52:18.091Z,3.22
2018-02-27T19:54:48.670Z,3.10
2018-02-27T19:57:15.389Z,4.03
2018-02-27T19:59:42.196Z,3.80
2018-02-27T20:02:10.262Z,4.03
2018-02-27T20:04:39.800Z,4.70
2018-02-27T20:07:07.066Z,4.40
2018-02-27T20:09:38.070Z,4.28
2018-02-27T20:12:04.748Z,5.00
2018-02-27T20:14:36.293Z,6.25
2018-02-27T20:17:03.461Z,5.40
2018-02-27T20:19:30.596Z,4.80
2018-02-27T20:21:57.421Z,5.05
2018-02-27T20:24:24.530Z,5.75
2018-02-27T20:26:52.615Z,6.03
2018-02-27T20:29:26.590Z,6.32
2018-02-27T20:31:53.514Z,6.85
2018-02-27T20:34:21.802Z,6.00
2018-02-27T20:36:48.971Z,7.45
2018-02-27T20:39:21.493Z,6.20
2018-02-27T20:41:48.281Z,6.35
2018-02-27T20:44:15.640Z,7.65
2018-02-27T20:46:42.359Z,6.75
2018-02-27T20:49:09.830Z,7.40
2018-02-27T20:51:36.688Z,7.32
2018-02-27T20:54:03.351Z,8.13
2018-02-27T20:56:29.999Z,8.15
2018-02-27T20:58:57.157Z,7.30
2018-02-27T21:01:23.851Z,6.32
2018-02-27T21:03:50.631Z,5.60
2018-02-27T21:06:17.299Z,6.50
2018-02-27T21:08:43.951Z,6.53
2018-02-27T21:11:10.682Z,5.80
2018-02-27T21:13:38.032Z,6.50
2018-02-27T21:16:05.414Z,5.50
2018-02-27T21:18:36.020Z,6.80
2018-02-27T21:21:02.770Z,7.57
2018-02-27T21:23:29.556Z,7.28
2018-02-27T21:25:56.197Z,8.55
2018-02-27T21:28:22.895Z,8.30
2018-02-27T21:30:49.604Z,8.10
2018-02-27T21:33:21.943Z,6.72
2018-02-27T21:35:48.593Z,8.60
2018-02-27T21:38:15.812Z,7.55
2018-02-27T21:40:42.524Z,8.07
2018-02-27T21:43:09.177Z,7.55
2018-02-27T21:45:40.627Z,8.20
2018-02-27T21:48:07.285Z,7.10
2018-02-27T21:50:33.927Z,7.30
2018-02-27T21:53:00.575Z,8.25
2018-02-27T21:55:27.236Z,7.60
2018-02-27T21:57:54.811Z,6.80
2018-02-27T22:00:22.152Z,7.00
2018-02-27T22:02:50.448Z,6.45
2018-02-27T22:05:17.556Z,6.78
2018-02-27T22:07:44.917Z,5.95
2018-02-27T22:10:11.589Z,6.95
2018-02-27T22:12:38.221Z,6.93
2018-02-27T22:15:04.923Z,6.50
2018-02-27T22:17:31.586Z,5.75
2018-02-27T22:19:58.209Z,7.45
2018-02-27T22:22:24.871Z,7.62
2018-02-27T22:24:51.518Z,7.25
2018-02-27T22:27:18.249Z,7.45
2018-02-27T22:29:44.949Z,6.97
2018-02-27T22:32:11.571Z,7.47
2018-02-27T22:34:38.493Z,6.72
2018-02-27T22:37:09.897Z,7.20
2018-02-27T22:39:38.222Z,6.85
2018-02-27T22:42:05.001Z,7.70
2018-02-27T22:44:31.709Z,7.80
2018-02-27T22:46:58.346Z,7.32
2018-02-27T22:49:25.352Z,7.22
2018-02-27T22:51:53.757Z,7.40
2018-02-27T22:54:21.193Z,8.05
2018-02-27T22:56:47.840Z,7.80
2018-02-27T22:59:18.796Z,6.85
2018-02-27T23:01:45.444Z,6.85
2018-02-27T23:04:14.176Z,7.82
2018-02-27T23:06:42.078Z,6.60
2018-02-27T23:09:08.830Z,6.35
2018-02-27T23:11:36.051Z,7.93
2018-02-27T23:14:05.235Z,6.57
2018-02-27T23:16:31.921Z,6.97
2018-02-27T23:18:59.430Z,6.75
2018-02-27T23:21:26.992Z,6.60
2018-02-27T23:23:54.976Z,6.55
2018-02-27T23:26:24.904Z,6.10
2018-02-27T23:29:00.626Z,6.70
2018-02-27T23:31:31.085Z,7.57
2018-02-27T23:34:09.935Z,6.85
2018-02-27T23:36:36.682Z,7.00
2018-02-27T23:39:03.304Z,6.80
2018-02-27T23:41:30.110Z,6.93
2018-02-27T23:46:30.698Z,7.57
2018-02-27T23:48:57.649Z,6.90
2018-02-27T23:51:25.135Z,6.75
2018-02-27T23:53:51.879Z,7.15
2018-02-27T23:56:19.534Z,6.68
2018-02-27T23:58:46.807Z,6.50
